EGJB

Guernsey Airport

Saint Peter Port, Guernsey
TAF EGJB 250454Z 2506/2515 27012KT 9999 SCT015 PROB30 TEMPO 2512/2515 27018G28KT 8000 SHRA BKN015
Issued Valid From Valid To
Apr-25 @ 04:54 UTC
(4 hours ago)
Apr-25 @ 06:00 UTC
(2 hours ago)
Apr-25 @ 15:00 UTC
(in 7 hours)
Apr-25 @ 06:00 to Apr-25 @ 15:00
TAF EGJB 250454Z 2506/2515 27012KT 9999 SCT015
Wind Visibility Clouds
270° at 12 knots 10,000+ meters
  • Scattered at 1,500' AGL
Temporary  (Probability 30%) Apr-25 @ 12:00 to Apr-25 @ 15:00
PROB30 TEMPO 2512/2515 27018G28KT 8000 SHRA BKN015
Wind Visibility Clouds Conditions
270° at 18 knots
 Gusting to 28 knots
7,998 meters
  • Broken at 1,500' AGL
  • Rain
TAF EGJB 250454Z 2506/2515 27012KT 9999 SCT015 PROB30 TEMPO 2512/2515 27018G28KT 8000 SHRA BKN015
Issued Apr-25 @ 04:54 UTC
(4 hours ago)
Valid From Apr-25 @ 06:00 UTC
(2 hours ago)
Valid To Apr-25 @ 15:00 UTC
(in 7 hours)
Apr-25 @ 06:00 - Apr-25 @ 15:00
Wind Visibility
270° at 12 knots 10,000+ meters
Clouds
  • Scattered at 1,500' AGL
Probability 30% Temporary Apr-25 @ 12:00 - Apr-25 @ 15:00
Wind Visibility
270° at 18 knots
 Gusting to 28 knots
7,998 meters
Clouds
  • Broken at 1,500' AGL
Conditions
  • Rain